sensor_id;sensor_type;location;lat;lon;timestamp;temperature;humidity
72919;SHT30;68407;55.694;26.994;2023-10-31T00:01:01;5.8;90
72919;SHT30;68407;55.694;26.994;2023-10-31T00:05:39;5.8;90.2
72919;SHT30;68407;55.694;26.994;2023-10-31T00:10:59;5.8;90.4
72919;SHT30;68407;55.694;26.994;2023-10-31T00:16:13;5.7;90.4
72919;SHT30;68407;55.694;26.994;2023-10-31T00:20:51;5.7;90.9
72919;SHT30;68407;55.694;26.994;2023-10-31T00:25:31;5.8;91.2
72919;SHT30;68407;55.694;26.994;2023-10-31T00:31:09;6;91.6
72919;SHT30;68407;55.694;26.994;2023-10-31T00:35:29;6.1;91.7
72919;SHT30;68407;55.694;26.994;2023-10-31T00:41:09;6.2;90.8
72919;SHT30;68407;55.694;26.994;2023-10-31T00:46:02;6.1;90.5
72919;SHT30;68407;55.694;26.994;2023-10-31T00:50:57;6;90
72919;SHT30;68407;55.694;26.994;2023-10-31T00:55:37;5.8;90.8
72919;SHT30;68407;55.694;26.994;2023-10-31T01:00:59;6;91.6
72919;SHT30;68407;55.694;26.994;2023-10-31T01:06:11;5.8;90.2
72919;SHT30;68407;55.694;26.994;2023-10-31T01:10:51;5.7;90.1
72919;SHT30;68407;55.694;26.994;2023-10-31T01:15:33;5.7;90.3
72919;SHT30;68407;55.694;26.994;2023-10-31T01:20:35;5.7;90.6
72919;SHT30;68407;55.694;26.994;2023-10-31T01:25:33;5.7;90.7
72919;SHT30;68407;55.694;26.994;2023-10-31T01:31:09;5.7;91
72919;SHT30;68407;55.694;26.994;2023-10-31T01:36:05;5.7;91.1
72919;SHT30;68407;55.694;26.994;2023-10-31T01:40:57;5.7;90.9
72919;SHT30;68407;55.694;26.994;2023-10-31T01:45:37;5.4;89.5
72919;SHT30;68407;55.694;26.994;2023-10-31T01:50:53;5.4;90.2
72919;SHT30;68407;55.694;26.994;2023-10-31T01:56:13;5.4;90.7
72919;SHT30;68407;55.694;26.994;2023-10-31T02:00:53;5.3;90.3
72919;SHT30;68407;55.694;26.994;2023-10-31T02:05:27;5.4;91.3
72919;SHT30;68407;55.694;26.994;2023-10-31T02:10:25;5.5;91.6
72919;SHT30;68407;55.694;26.994;2023-10-31T02:15:35;5.6;91.3
72919;SHT30;68407;55.694;26.994;2023-10-31T02:21:13;5.5;90.6
72919;SHT30;68407;55.694;26.994;2023-10-31T02:26:03;5.4;90.5
72919;SHT30;68407;55.694;26.994;2023-10-31T02:31:01;5.4;90.8
72919;SHT30;68407;55.694;26.994;2023-10-31T02:36:07;5.5;90.7
72919;SHT30;68407;55.694;26.994;2023-10-31T02:41:13;5.5;90.7
72919;SHT30;68407;55.694;26.994;2023-10-31T02:46:11;5.5;91
72919;SHT30;68407;55.694;26.994;2023-10-31T02:50:27;5.6;91
72919;SHT30;68407;55.694;26.994;2023-10-31T02:55:33;5.6;90.9
72919;SHT30;68407;55.694;26.994;2023-10-31T03:00:33;5.3;89.5
72919;SHT30;68407;55.694;26.994;2023-10-31T03:06:04;4.9;89.3
72919;SHT30;68407;55.694;26.994;2023-10-31T03:11:09;5;90.8
72919;SHT30;68407;55.694;26.994;2023-10-31T03:16:03;5.3;91.5
72919;SHT30;68407;55.694;26.994;2023-10-31T03:21:01;5.3;90.6
72919;SHT30;68407;55.694;26.994;2023-10-31T03:25:39;5.1;90.5
72919;SHT30;68407;55.694;26.994;2023-10-31T03:30:27;5.4;91.5
72919;SHT30;68407;55.694;26.994;2023-10-31T03:36:13;5.7;91.9
72919;SHT30;68407;55.694;26.994;2023-10-31T03:40:51;6;92.1
72919;SHT30;68407;55.694;26.994;2023-10-31T03:45:33;6.2;92
72919;SHT30;68407;55.694;26.994;2023-10-31T03:50:33;6.4;91.8
72919;SHT30;68407;55.694;26.994;2023-10-31T03:56:03;6.6;91.7
72919;SHT30;68407;55.694;26.994;2023-10-31T04:01:13;6.7;91.4
72919;SHT30;68407;55.694;26.994;2023-10-31T04:05:43;6.7;91
72919;SHT30;68407;55.694;26.994;2023-10-31T04:11:01;6.8;90.7
72919;SHT30;68407;55.694;26.994;2023-10-31T04:15:39;6.8;90.7
72919;SHT30;68407;55.694;26.994;2023-10-31T04:20:25;6.8;90.8
72919;SHT30;68407;55.694;26.994;2023-10-31T04:26:11;6.9;90.7
72919;SHT30;68407;55.694;26.994;2023-10-31T04:31:09;6.9;90.5
72919;SHT30;68407;55.694;26.994;2023-10-31T04:35:33;6.8;90.2
72919;SHT30;68407;55.694;26.994;2023-10-31T04:40:25;6.7;90
72919;SHT30;68407;55.694;26.994;2023-10-31T04:45:57;6.5;90.2
72919;SHT30;68407;55.694;26.994;2023-10-31T04:50:59;6.4;90.3
72919;SHT30;68407;55.694;26.994;2023-10-31T04:56:03;6.3;90.1
72919;SHT30;68407;55.694;26.994;2023-10-31T05:00:57;6.3;90.5
72919;SHT30;68407;55.694;26.994;2023-10-31T05:05:27;6.3;90.5
72919;SHT30;68407;55.694;26.994;2023-10-31T05:10:33;6.3;90.3
72919;SHT30;68407;55.694;26.994;2023-10-31T05:16:09;6.3;90.5
72919;SHT30;68407;55.694;26.994;2023-10-31T05:20:53;6.3;90.7
72919;SHT30;68407;55.694;26.994;2023-10-31T05:25:33;6.2;90.6
72919;SHT30;68407;55.694;26.994;2023-10-31T05:30:33;6.3;90.8
72919;SHT30;68407;55.694;26.994;2023-10-31T05:36:03;6.4;91.1
72919;SHT30;68407;55.694;26.994;2023-10-31T05:41:11;6.4;90.7
72919;SHT30;68407;55.694;26.994;2023-10-31T05:45:45;6.4;90.5
72919;SHT30;68407;55.694;26.994;2023-10-31T05:51:11;6.5;91
72919;SHT30;68407;55.694;26.994;2023-10-31T05:55:29;6.6;90.5
72919;SHT30;68407;55.694;26.994;2023-10-31T06:00:51;6.7;90.4
72919;SHT30;68407;55.694;26.994;2023-10-31T06:06:09;6.8;90.7
72919;SHT30;68407;55.694;26.994;2023-10-31T06:10:59;7;90.6
72919;SHT30;68407;55.694;26.994;2023-10-31T06:16:11;7.1;90.5
72919;SHT30;68407;55.694;26.994;2023-10-31T06:20:27;7.3;90.4
72919;SHT30;68407;55.694;26.994;2023-10-31T06:26:03;7.5;90.8
72919;SHT30;68407;55.694;26.994;2023-10-31T06:30:49;7.7;91.1
72919;SHT30;68407;55.694;26.994;2023-10-31T06:36:09;7.9;91.1
72919;SHT30;68407;55.694;26.994;2023-10-31T06:40:57;8.1;91.1
72919;SHT30;68407;55.694;26.994;2023-10-31T06:46:09;8.3;91
72919;SHT30;68407;55.694;26.994;2023-10-31T06:50:53;8.5;90.8
72919;SHT30;68407;55.694;26.994;2023-10-31T06:55:59;8.6;90.4
72919;SHT30;68407;55.694;26.994;2023-10-31T07:00:49;8.7;90.2
72919;SHT30;68407;55.694;26.994;2023-10-31T07:05:27;8.9;90.1
72919;SHT30;68407;55.694;26.994;2023-10-31T07:10:33;9.1;89.9
72919;SHT30;68407;55.694;26.994;2023-10-31T07:15:27;9.2;89.8
72919;SHT30;68407;55.694;26.994;2023-10-31T07:21:11;9.4;89.8
72919;SHT30;68407;55.694;26.994;2023-10-31T07:26:11;9.5;89.6
72919;SHT30;68407;55.694;26.994;2023-10-31T07:30:29;9.6;89.6
72919;SHT30;68407;55.694;26.994;2023-10-31T07:36:11;9.8;89.4
72919;SHT30;68407;55.694;26.994;2023-10-31T07:40:53;9.8;88.9
72919;SHT30;68407;55.694;26.994;2023-10-31T07:45:59;10.1;88.9
72919;SHT30;68407;55.694;26.994;2023-10-31T07:50:33;10.3;88.6
72919;SHT30;68407;55.694;26.994;2023-10-31T07:55:27;10.4;87.9
72919;SHT30;68407;55.694;26.994;2023-10-31T08:00:27;10.3;87.5
72919;SHT30;68407;55.694;26.994;2023-10-31T08:05:27;10.2;87.9
72919;SHT30;68407;55.694;26.994;2023-10-31T08:11:11;10.2;87.8
72919;SHT30;68407;55.694;26.994;2023-10-31T08:16:16;10.1;87.7
72919;SHT30;68407;55.694;26.994;2023-10-31T08:20:59;10;87.9
72919;SHT30;68407;55.694;26.994;2023-10-31T08:26:11;10;88
72919;SHT30;68407;55.694;26.994;2023-10-31T08:30:53;10.1;88.2
72919;SHT30;68407;55.694;26.994;2023-10-31T08:35:59;10.4;87.9
72919;SHT30;68407;55.694;26.994;2023-10-31T08:40:27;10.7;87.5
72919;SHT30;68407;55.694;26.994;2023-10-31T08:45:33;10.9;87
72919;SHT30;68407;55.694;26.994;2023-10-31T08:50:33;11;86.7
72919;SHT30;68407;55.694;26.994;2023-10-31T08:55:27;11.1;86.6
72919;SHT30;68407;55.694;26.994;2023-10-31T09:01:11;11.2;86.3
72919;SHT30;68407;55.694;26.994;2023-10-31T09:06:11;11.2;86.1
72919;SHT30;68407;55.694;26.994;2023-10-31T09:10:59;11.3;85.9
72919;SHT30;68407;55.694;26.994;2023-10-31T09:16:11;11.3;85.9
72919;SHT30;68407;55.694;26.994;2023-10-31T09:20:27;11.4;86
72919;SHT30;68407;55.694;26.994;2023-10-31T09:25:59;11.5;86.1
72919;SHT30;68407;55.694;26.994;2023-10-31T09:30:27;11.6;85.7
72919;SHT30;68407;55.694;26.994;2023-10-31T09:35:31;11.6;85.6
72919;SHT30;68407;55.694;26.994;2023-10-31T09:40:31;11.7;85.6
72919;SHT30;68407;55.694;26.994;2023-10-31T09:45:41;11.7;85.6
72919;SHT30;68407;55.694;26.994;2023-10-31T09:51:09;11.7;85.7
72919;SHT30;68407;55.694;26.994;2023-10-31T09:56:11;11.6;85.7
72919;SHT30;68407;55.694;26.994;2023-10-31T10:00:59;11.6;86
72919;SHT30;68407;55.694;26.994;2023-10-31T10:06:11;11.6;86.3
72919;SHT30;68407;55.694;26.994;2023-10-31T10:10:53;11.6;86.1
72919;SHT30;68407;55.694;26.994;2023-10-31T10:15:59;11.6;86.3
72919;SHT30;68407;55.694;26.994;2023-10-31T10:20:33;11.6;86.3
72919;SHT30;68407;55.694;26.994;2023-10-31T10:26:00;11.6;86.6
72919;SHT30;68407;55.694;26.994;2023-10-31T10:30:27;11.6;86.9
72919;SHT30;68407;55.694;26.994;2023-10-31T10:35:37;11.6;87
72919;SHT30;68407;55.694;26.994;2023-10-31T10:41:11;11.7;87
72919;SHT30;68407;55.694;26.994;2023-10-31T10:46:11;11.8;86.7
72919;SHT30;68407;55.694;26.994;2023-10-31T10:51:02;12;86.5
72919;SHT30;68407;55.694;26.994;2023-10-31T10:56:13;12.1;86.1
72919;SHT30;68407;55.694;26.994;2023-10-31T11:00:53;12.1;85.9
72919;SHT30;68407;55.694;26.994;2023-10-31T11:06:11;12.3;85.9
72919;SHT30;68407;55.694;26.994;2023-10-31T11:10:27;12.7;85.3
72919;SHT30;68407;55.694;26.994;2023-10-31T11:15:27;12.7;84.8
72919;SHT30;68407;55.694;26.994;2023-10-31T11:20:49;12.7;84.7
72919;SHT30;68407;55.694;26.994;2023-10-31T11:25:54;12.8;84.8
72919;SHT30;68407;55.694;26.994;2023-10-31T11:30:48;12.8;85
72919;SHT30;68407;55.694;26.994;2023-10-31T11:35:50;12.7;85.2
72919;SHT30;68407;55.694;26.994;2023-10-31T11:41:09;12.7;85.3
72919;SHT30;68407;55.694;26.994;2023-10-31T11:46:17;12.6;85.6
72919;SHT30;68407;55.694;26.994;2023-10-31T11:50:27;12.6;86
72919;SHT30;68407;55.694;26.994;2023-10-31T11:56:11;12.5;86.3
72919;SHT30;68407;55.694;26.994;2023-10-31T12:00:27;12.4;86.5
72919;SHT30;68407;55.694;26.994;2023-10-31T12:05:54;12.3;87
72919;SHT30;68407;55.694;26.994;2023-10-31T12:10:49;12.2;87.4
72919;SHT30;68407;55.694;26.994;2023-10-31T12:15:50;12.2;87.7
72919;SHT30;68407;55.694;26.994;2023-10-31T12:20:49;12.3;88
72919;SHT30;68407;55.694;26.994;2023-10-31T12:26:07;12.3;88
72919;SHT30;68407;55.694;26.994;2023-10-31T12:31:09;12.3;87.9
72919;SHT30;68407;55.694;26.994;2023-10-31T12:36:09;12.3;88.2
72919;SHT30;68407;55.694;26.994;2023-10-31T12:40:47;12.3;88.3
72919;SHT30;68407;55.694;26.994;2023-10-31T12:46:27;12.4;88.3
72919;SHT30;68407;55.694;26.994;2023-10-31T12:50:34;12.5;88.1
72919;SHT30;68407;55.694;26.994;2023-10-31T12:55:54;12.6;87.8
72919;SHT30;68407;55.694;26.994;2023-10-31T13:00:49;12.7;87.5
72919;SHT30;68407;55.694;26.994;2023-10-31T13:06:13;12.7;87.5
72919;SHT30;68407;55.694;26.994;2023-10-31T13:10:39;12.6;87.6
72919;SHT30;68407;55.694;26.994;2023-10-31T13:15:51;12.6;87.6
72919;SHT30;68407;55.694;26.994;2023-10-31T13:21:11;12.6;87.6
72919;SHT30;68407;55.694;26.994;2023-10-31T13:26:13;12.6;87.9
72919;SHT30;68407;55.694;26.994;2023-10-31T13:30:28;12.7;87.8
72919;SHT30;68407;55.694;26.994;2023-10-31T13:36:13;12.7;87.7
72919;SHT30;68407;55.694;26.994;2023-10-31T13:40:31;12.7;87.7
72919;SHT30;68407;55.694;26.994;2023-10-31T13:45:31;12.7;87.7
72919;SHT30;68407;55.694;26.994;2023-10-31T13:50:49;12.7;87.7
72919;SHT30;68407;55.694;26.994;2023-10-31T13:56:03;12.7;87.5
72919;SHT30;68407;55.694;26.994;2023-10-31T14:00:49;12.7;87.6
72919;SHT30;68407;55.694;26.994;2023-10-31T14:05:49;12.7;87.8
72919;SHT30;68407;55.694;26.994;2023-10-31T14:11:11;12.7;87.8
72919;SHT30;68407;55.694;26.994;2023-10-31T14:16:13;12.7;87.6
72919;SHT30;68407;55.694;26.994;2023-10-31T14:20:47;12.7;87.8
72919;SHT30;68407;55.694;26.994;2023-10-31T14:26:13;12.7;87.7
72919;SHT30;68407;55.694;26.994;2023-10-31T14:30:27;12.7;87.7
72919;SHT30;68407;55.694;26.994;2023-10-31T14:35:27;12.7;87.8
72919;SHT30;68407;55.694;26.994;2023-10-31T14:40:49;12.7;87.6
72919;SHT30;68407;55.694;26.994;2023-10-31T14:45:41;12.7;87.7
72919;SHT30;68407;55.694;26.994;2023-10-31T14:50:52;12.7;87.6
72919;SHT30;68407;55.694;26.994;2023-10-31T14:55:51;12.7;87.5
72919;SHT30;68407;55.694;26.994;2023-10-31T15:01:09;12.8;87.2
72919;SHT30;68407;55.694;26.994;2023-10-31T15:06:13;12.8;87
72919;SHT30;68407;55.694;26.994;2023-10-31T15:10:27;12.8;86.8
72919;SHT30;68407;55.694;26.994;2023-10-31T15:16:13;12.9;86.5
72919;SHT30;68407;55.694;26.994;2023-10-31T15:20:27;12.9;86.6
72919;SHT30;68407;55.694;26.994;2023-10-31T15:25:27;12.9;86.5
72919;SHT30;68407;55.694;26.994;2023-10-31T15:30:51;12.9;86.6
72919;SHT30;68407;55.694;26.994;2023-10-31T15:35:26;12.9;86.5
72919;SHT30;68407;55.694;26.994;2023-10-31T15:40:37;12.9;86.6
72919;SHT30;68407;55.694;26.994;2023-10-31T15:45:49;12.9;86.5
72919;SHT30;68407;55.694;26.994;2023-10-31T15:50:38;13;86.7
72919;SHT30;68407;55.694;26.994;2023-10-31T15:55:59;12.9;87
72919;SHT30;68407;55.694;26.994;2023-10-31T16:01:02;12.9;87
72919;SHT30;68407;55.694;26.994;2023-10-31T16:05:33;12.9;87
72919;SHT30;68407;55.694;26.994;2023-10-31T16:10:27;13;86.9
72919;SHT30;68407;55.694;26.994;2023-10-31T16:15:25;13.1;86.5
72919;SHT30;68407;55.694;26.994;2023-10-31T16:21:15;13.3;85.9
72919;SHT30;68407;55.694;26.994;2023-10-31T16:25:25;13.4;85.4
72919;SHT30;68407;55.694;26.994;2023-10-31T16:30:35;13.5;85
72919;SHT30;68407;55.694;26.994;2023-10-31T16:35:49;13.5;84.6
72919;SHT30;68407;55.694;26.994;2023-10-31T16:40:31;13.6;84.4
72919;SHT30;68407;55.694;26.994;2023-10-31T16:46:09;13.6;84.2
72919;SHT30;68407;55.694;26.994;2023-10-31T16:51:04;13.6;84.1
72919;SHT30;68407;55.694;26.994;2023-10-31T16:55:27;13.6;83.9
72919;SHT30;68407;55.694;26.994;2023-10-31T17:00:33;13.6;83.8
72919;SHT30;68407;55.694;26.994;2023-10-31T17:05:27;13.7;83.4
72919;SHT30;68407;55.694;26.994;2023-10-31T17:11:09;13.8;83.1
72919;SHT30;68407;55.694;26.994;2023-10-31T17:15:41;13.9;82.6
72919;SHT30;68407;55.694;26.994;2023-10-31T17:20:25;13.9;82.2
72919;SHT30;68407;55.694;26.994;2023-10-31T17:25:47;14;82
72919;SHT30;68407;55.694;26.994;2023-10-31T17:30:25;14;81.9
72919;SHT30;68407;55.694;26.994;2023-10-31T17:36:10;14.1;81.6
72919;SHT30;68407;55.694;26.994;2023-10-31T17:40:57;14.1;81.2
72919;SHT30;68407;55.694;26.994;2023-10-31T17:45:33;14.2;80.8
72919;SHT30;68407;55.694;26.994;2023-10-31T17:50:27;14.2;80.4
72919;SHT30;68407;55.694;26.994;2023-10-31T17:55:28;14.3;80.2
72919;SHT30;68407;55.694;26.994;2023-10-31T18:01:11;14.3;79.9
72919;SHT30;68407;55.694;26.994;2023-10-31T18:05:41;14.3;79.7
72919;SHT30;68407;55.694;26.994;2023-10-31T18:10:37;14.3;79.6
72919;SHT30;68407;55.694;26.994;2023-10-31T18:15:52;14.3;79.6
72919;SHT30;68407;55.694;26.994;2023-10-31T18:20:39;14.4;79.4
72919;SHT30;68407;55.694;26.994;2023-10-31T18:26:13;14.4;79.1
72919;SHT30;68407;55.694;26.994;2023-10-31T18:30:59;14.4;79
72919;SHT30;68407;55.694;26.994;2023-10-31T18:35:27;14.4;79
72919;SHT30;68407;55.694;26.994;2023-10-31T18:40:27;14.4;78.9
72919;SHT30;68407;55.694;26.994;2023-10-31T18:45:27;14.4;78.7
72919;SHT30;68407;55.694;26.994;2023-10-31T18:51:11;14.4;78.6
72919;SHT30;68407;55.694;26.994;2023-10-31T18:55:33;14.4;78.6
72919;SHT30;68407;55.694;26.994;2023-10-31T19:00:39;14.3;78.7
72919;SHT30;68407;55.694;26.994;2023-10-31T19:05:52;14.2;79
72919;SHT30;68407;55.694;26.994;2023-10-31T19:10:34;14.2;79
72919;SHT30;68407;55.694;26.994;2023-10-31T19:16:09;14.2;78.9
72919;SHT30;68407;55.694;26.994;2023-10-31T19:21:02;14.2;78.9
72919;SHT30;68407;55.694;26.994;2023-10-31T19:25:28;14;79.2
72919;SHT30;68407;55.694;26.994;2023-10-31T19:30:28;13.8;79.6
72919;SHT30;68407;55.694;26.994;2023-10-31T19:35:26;13.8;79.8
72919;SHT30;68407;55.694;26.994;2023-10-31T19:41:09;13.7;80
72919;SHT30;68407;55.694;26.994;2023-10-31T19:45:34;13.7;80.2
72919;SHT30;68407;55.694;26.994;2023-10-31T19:50:34;13.7;80.2
72919;SHT30;68407;55.694;26.994;2023-10-31T19:55:52;13.9;80
72919;SHT30;68407;55.694;26.994;2023-10-31T20:00:40;13.9;79.8
72919;SHT30;68407;55.694;26.994;2023-10-31T20:06:14;14;79.7
72919;SHT30;68407;55.694;26.994;2023-10-31T20:11:06;14;79.6
72919;SHT30;68407;55.694;26.994;2023-10-31T20:15:26;14;79.7
72919;SHT30;68407;55.694;26.994;2023-10-31T20:20:26;14;79.8
72919;SHT30;68407;55.694;26.994;2023-10-31T20:25:28;14;79.9
72919;SHT30;68407;55.694;26.994;2023-10-31T20:31:12;14;80
72919;SHT30;68407;55.694;26.994;2023-10-31T20:35:28;13.9;80
72919;SHT30;68407;55.694;26.994;2023-10-31T20:41:00;13.9;80.2
72919;SHT30;68407;55.694;26.994;2023-10-31T20:45:52;13.9;80.3
72919;SHT30;68407;55.694;26.994;2023-10-31T20:51:06;13.9;80.3
72919;SHT30;68407;55.694;26.994;2023-10-31T20:56:12;13.8;80.4
72919;SHT30;68407;55.694;26.994;2023-10-31T21:00:56;13.7;80.6
72919;SHT30;68407;55.694;26.994;2023-10-31T21:06:02;13.6;80.9
72919;SHT30;68407;55.694;26.994;2023-10-31T21:10:38;13.5;81.2
72919;SHT30;68407;55.694;26.994;2023-10-31T21:16:06;13.4;81.5
72919;SHT30;68407;55.694;26.994;2023-10-31T21:21:14;13.4;81.7
72919;SHT30;68407;55.694;26.994;2023-10-31T21:25:28;13.4;81.6
72919;SHT30;68407;55.694;26.994;2023-10-31T21:30:34;13.4;81.7
72919;SHT30;68407;55.694;26.994;2023-10-31T21:35:50;13.4;81.8
72919;SHT30;68407;55.694;26.994;2023-10-31T21:40:30;13.4;81.8
72919;SHT30;68407;55.694;26.994;2023-10-31T21:46:14;13.3;81.8
72919;SHT30;68407;55.694;26.994;2023-10-31T21:50:56;13.2;82
72919;SHT30;68407;55.694;26.994;2023-10-31T21:55:54;13.1;82.3
72919;SHT30;68407;55.694;26.994;2023-10-31T22:00:34;12.9;82.6
72919;SHT30;68407;55.694;26.994;2023-10-31T22:05:42;12.8;83
72919;SHT30;68407;55.694;26.994;2023-10-31T22:11:12;12.6;83.4
72919;SHT30;68407;55.694;26.994;2023-10-31T22:15:36;12.4;83.9
72919;SHT30;68407;55.694;26.994;2023-10-31T22:20:38;12.3;84.1
72919;SHT30;68407;55.694;26.994;2023-10-31T22:25:48;12.2;84.6
72919;SHT30;68407;55.694;26.994;2023-10-31T22:31:04;12.1;84.8
72919;SHT30;68407;55.694;26.994;2023-10-31T22:36:14;12;84.9
72919;SHT30;68407;55.694;26.994;2023-10-31T22:41:06;11.8;85.3
72919;SHT30;68407;55.694;26.994;2023-10-31T22:45:28;11.8;85.6
72919;SHT30;68407;55.694;26.994;2023-10-31T22:50:34;11.7;85.7
72919;SHT30;68407;55.694;26.994;2023-10-31T22:55:42;11.7;85.9
72919;SHT30;68407;55.694;26.994;2023-10-31T23:01:14;11.6;86.1
72919;SHT30;68407;55.694;26.994;2023-10-31T23:05:44;11.6;86.2
72919;SHT30;68407;55.694;26.994;2023-10-31T23:10:40;11.6;86.3
72919;SHT30;68407;55.694;26.994;2023-10-31T23:15:52;11.6;86.3
72919;SHT30;68407;55.694;26.994;2023-10-31T23:20:30;11.6;86.4
72919;SHT30;68407;55.694;26.994;2023-10-31T23:26:12;11.6;86.5
72919;SHT30;68407;55.694;26.994;2023-10-31T23:30:34;11.7;86.7
72919;SHT30;68407;55.694;26.994;2023-10-31T23:35:54;11.8;86.6
72919;SHT30;68407;55.694;26.994;2023-10-31T23:40:26;11.8;86.4
72919;SHT30;68407;55.694;26.994;2023-10-31T23:45:28;11.9;86.2
72919;SHT30;68407;55.694;26.994;2023-10-31T23:51:17;11.9;86.2
72919;SHT30;68407;55.694;26.994;2023-10-31T23:56:04;12;86
